sensor_id;sensor_type;location;lat;lon;timestamp;temperature;humidity
47861;HTU21D;33620;52.340;5.984;2023-07-02T00:01:44;18.30;75.33
47861;HTU21D;33620;52.340;5.984;2023-07-02T00:04:10;18.29;75.43
47861;HTU21D;33620;52.340;5.984;2023-07-02T00:06:39;18.27;75.32
47861;HTU21D;33620;52.340;5.984;2023-07-02T00:09:08;18.23;75.34
47861;HTU21D;33620;52.340;5.984;2023-07-02T00:11:37;18.20;75.57
47861;HTU21D;33620;52.340;5.984;2023-07-02T00:14:02;18.15;75.70
47861;HTU21D;33620;52.340;5.984;2023-07-02T00:16:28;18.10;75.78
47861;HTU21D;33620;52.340;5.984;2023-07-02T00:18:53;18.05;75.83
47861;HTU21D;33620;52.340;5.984;2023-07-02T00:21:19;18.02;75.64
47861;HTU21D;33620;52.340;5.984;2023-07-02T00:23:45;17.99;75.91
47861;HTU21D;33620;52.340;5.984;2023-07-02T00:26:11;18.04;75.54
47861;HTU21D;33620;52.340;5.984;2023-07-02T00:28:36;18.04;75.13
47861;HTU21D;33620;52.340;5.984;2023-07-02T00:31:01;18.00;74.93
47861;HTU21D;33620;52.340;5.984;2023-07-02T00:33:27;18.03;75.04
47861;HTU21D;33620;52.340;5.984;2023-07-02T00:35:54;18.04;74.57
47861;HTU21D;33620;52.340;5.984;2023-07-02T00:38:19;18.07;74.53
47861;HTU21D;33620;52.340;5.984;2023-07-02T00:40:45;18.03;74.73
47861;HTU21D;33620;52.340;5.984;2023-07-02T00:43:10;18.05;74.09
47861;HTU21D;33620;52.340;5.984;2023-07-02T00:45:38;18.04;73.61
47861;HTU21D;33620;52.340;5.984;2023-07-02T00:48:07;18.07;73.75
47861;HTU21D;33620;52.340;5.984;2023-07-02T00:50:33;18.10;73.22
47861;HTU21D;33620;52.340;5.984;2023-07-02T00:52:58;18.06;72.35
47861;HTU21D;33620;52.340;5.984;2023-07-02T00:55:24;18.03;71.97
47861;HTU21D;33620;52.340;5.984;2023-07-02T00:57:50;18.03;71.85
47861;HTU21D;33620;52.340;5.984;2023-07-02T01:00:15;17.99;72.42
47861;HTU21D;33620;52.340;5.984;2023-07-02T01:02:41;17.97;72.57
47861;HTU21D;33620;52.340;5.984;2023-07-02T01:05:15;17.92;72.65
47861;HTU21D;33620;52.340;5.984;2023-07-02T01:07:40;17.91;72.97
47861;HTU21D;33620;52.340;5.984;2023-07-02T01:10:06;17.89;72.80
47861;HTU21D;33620;52.340;5.984;2023-07-02T01:12:32;17.87;72.44
47861;HTU21D;33620;52.340;5.984;2023-07-02T01:15:00;17.87;72.49
47861;HTU21D;33620;52.340;5.984;2023-07-02T01:17:29;17.87;71.67
47861;HTU21D;33620;52.340;5.984;2023-07-02T01:20:03;17.83;70.51
47861;HTU21D;33620;52.340;5.984;2023-07-02T01:22:30;17.85;69.87
47861;HTU21D;33620;52.340;5.984;2023-07-02T01:24:56;17.85;69.55
47861;HTU21D;33620;52.340;5.984;2023-07-02T01:27:22;17.83;68.52
47861;HTU21D;33620;52.340;5.984;2023-07-02T01:29:51;17.82;67.72
47861;HTU21D;33620;52.340;5.984;2023-07-02T01:32:18;17.75;65.63
47861;HTU21D;33620;52.340;5.984;2023-07-02T01:34:44;17.72;65.51
47861;HTU21D;33620;52.340;5.984;2023-07-02T01:37:09;17.68;65.41
47861;HTU21D;33620;52.340;5.984;2023-07-02T01:39:35;17.66;64.34
47861;HTU21D;33620;52.340;5.984;2023-07-02T01:42:14;17.65;64.27
47861;HTU21D;33620;52.340;5.984;2023-07-02T01:44:43;17.63;63.87
47861;HTU21D;33620;52.340;5.984;2023-07-02T01:47:09;17.61;63.17
47861;HTU21D;33620;52.340;5.984;2023-07-02T01:49:35;17.54;62.97
47861;HTU21D;33620;52.340;5.984;2023-07-02T01:52:01;17.52;63.61
47861;HTU21D;33620;52.340;5.984;2023-07-02T01:54:27;17.48;63.48
47861;HTU21D;33620;52.340;5.984;2023-07-02T01:56:54;17.46;63.30
47861;HTU21D;33620;52.340;5.984;2023-07-02T01:59:19;17.40;63.34
47861;HTU21D;33620;52.340;5.984;2023-07-02T02:01:45;17.37;63.50
47861;HTU21D;33620;52.340;5.984;2023-07-02T02:04:11;17.34;63.80
47861;HTU21D;33620;52.340;5.984;2023-07-02T02:06:38;17.33;63.78
47861;HTU21D;33620;52.340;5.984;2023-07-02T02:09:04;17.26;63.31
47861;HTU21D;33620;52.340;5.984;2023-07-02T02:11:30;17.24;63.86
47861;HTU21D;33620;52.340;5.984;2023-07-02T02:13:57;17.20;64.30
47861;HTU21D;33620;52.340;5.984;2023-07-02T02:16:22;17.13;64.37
47861;HTU21D;33620;52.340;5.984;2023-07-02T02:18:48;17.07;64.41
47861;HTU21D;33620;52.340;5.984;2023-07-02T02:21:17;17.06;64.65
47861;HTU21D;33620;52.340;5.984;2023-07-02T02:23:42;17.03;64.82
47861;HTU21D;33620;52.340;5.984;2023-07-02T02:26:08;17.02;65.10
47861;HTU21D;33620;52.340;5.984;2023-07-02T02:28:33;17.02;65.43
47861;HTU21D;33620;52.340;5.984;2023-07-02T02:30:59;16.99;65.45
47861;HTU21D;33620;52.340;5.984;2023-07-02T02:33:24;16.94;66.05
47861;HTU21D;33620;52.340;5.984;2023-07-02T02:35:49;16.89;66.62
47861;HTU21D;33620;52.340;5.984;2023-07-02T02:38:15;16.82;66.65
47861;HTU21D;33620;52.340;5.984;2023-07-02T02:40:40;16.75;67.12
47861;HTU21D;33620;52.340;5.984;2023-07-02T02:43:06;16.69;67.03
47861;HTU21D;33620;52.340;5.984;2023-07-02T02:45:32;16.60;67.40
47861;HTU21D;33620;52.340;5.984;2023-07-02T02:47:57;16.55;66.94
47861;HTU21D;33620;52.340;5.984;2023-07-02T02:50:23;16.50;67.17
47861;HTU21D;33620;52.340;5.984;2023-07-02T02:52:48;16.46;67.17
47861;HTU21D;33620;52.340;5.984;2023-07-02T02:55:13;16.36;67.50
47861;HTU21D;33620;52.340;5.984;2023-07-02T02:57:39;16.32;67.84
47861;HTU21D;33620;52.340;5.984;2023-07-02T03:00:05;16.28;68.28
47861;HTU21D;33620;52.340;5.984;2023-07-02T03:02:32;16.29;68.18
47861;HTU21D;33620;52.340;5.984;2023-07-02T03:04:57;16.26;68.33
47861;HTU21D;33620;52.340;5.984;2023-07-02T03:07:27;16.22;68.47
47861;HTU21D;33620;52.340;5.984;2023-07-02T03:09:53;16.20;68.83
47861;HTU21D;33620;52.340;5.984;2023-07-02T03:12:18;16.17;68.75
47861;HTU21D;33620;52.340;5.984;2023-07-02T03:14:44;16.13;68.84
47861;HTU21D;33620;52.340;5.984;2023-07-02T03:17:10;16.11;68.70
47861;HTU21D;33620;52.340;5.984;2023-07-02T03:19:35;16.01;69.05
47861;HTU21D;33620;52.340;5.984;2023-07-02T03:22:00;15.93;69.55
47861;HTU21D;33620;52.340;5.984;2023-07-02T03:24:26;15.92;69.75
47861;HTU21D;33620;52.340;5.984;2023-07-02T03:26:51;15.90;70.31
47861;HTU21D;33620;52.340;5.984;2023-07-02T03:29:17;15.89;70.61
47861;HTU21D;33620;52.340;5.984;2023-07-02T03:31:45;15.91;70.87
47861;HTU21D;33620;52.340;5.984;2023-07-02T03:34:10;15.89;70.67
47861;HTU21D;33620;52.340;5.984;2023-07-02T03:36:38;15.87;70.87
47861;HTU21D;33620;52.340;5.984;2023-07-02T03:39:04;15.85;70.78
47861;HTU21D;33620;52.340;5.984;2023-07-02T03:41:30;15.80;71.13
47861;HTU21D;33620;52.340;5.984;2023-07-02T03:43:56;15.80;71.38
47861;HTU21D;33620;52.340;5.984;2023-07-02T03:46:21;15.78;71.26
47861;HTU21D;33620;52.340;5.984;2023-07-02T03:48:47;15.75;71.35
47861;HTU21D;33620;52.340;5.984;2023-07-02T03:51:12;15.72;71.80
47861;HTU21D;33620;52.340;5.984;2023-07-02T03:53:42;15.70;71.90
47861;HTU21D;33620;52.340;5.984;2023-07-02T03:56:08;15.67;72.08
47861;HTU21D;33620;52.340;5.984;2023-07-02T03:58:33;15.66;72.20
47861;HTU21D;33620;52.340;5.984;2023-07-02T04:00:59;15.63;72.59
47861;HTU21D;33620;52.340;5.984;2023-07-02T04:03:24;15.60;72.67
47861;HTU21D;33620;52.340;5.984;2023-07-02T04:05:50;15.61;72.76
47861;HTU21D;33620;52.340;5.984;2023-07-02T04:08:15;15.61;72.86
47861;HTU21D;33620;52.340;5.984;2023-07-02T04:10:41;15.60;72.64
47861;HTU21D;33620;52.340;5.984;2023-07-02T04:13:07;15.57;72.28
47861;HTU21D;33620;52.340;5.984;2023-07-02T04:15:32;15.56;72.44
47861;HTU21D;33620;52.340;5.984;2023-07-02T04:17:58;15.53;72.61
47861;HTU21D;33620;52.340;5.984;2023-07-02T04:20:23;15.49;72.58
47861;HTU21D;33620;52.340;5.984;2023-07-02T04:22:50;15.48;72.85
47861;HTU21D;33620;52.340;5.984;2023-07-02T04:25:15;15.51;73.06
47861;HTU21D;33620;52.340;5.984;2023-07-02T04:27:42;15.52;72.81
47861;HTU21D;33620;52.340;5.984;2023-07-02T04:30:08;15.49;72.35
47861;HTU21D;33620;52.340;5.984;2023-07-02T04:32:35;15.51;72.60
47861;HTU21D;33620;52.340;5.984;2023-07-02T04:35:00;15.51;72.86
47861;HTU21D;33620;52.340;5.984;2023-07-02T04:37:26;15.51;72.57
47861;HTU21D;33620;52.340;5.984;2023-07-02T04:39:53;15.53;72.67
47861;HTU21D;33620;52.340;5.984;2023-07-02T04:42:19;15.48;72.86
47861;HTU21D;33620;52.340;5.984;2023-07-02T04:44:44;15.49;72.58
47861;HTU21D;33620;52.340;5.984;2023-07-02T04:47:10;15.46;73.11
47861;HTU21D;33620;52.340;5.984;2023-07-02T04:49:35;15.44;73.32
47861;HTU21D;33620;52.340;5.984;2023-07-02T04:52:00;15.49;73.12
47861;HTU21D;33620;52.340;5.984;2023-07-02T04:54:26;15.58;72.83
47861;HTU21D;33620;52.340;5.984;2023-07-02T04:56:51;15.58;72.86
47861;HTU21D;33620;52.340;5.984;2023-07-02T04:59:16;15.65;72.86
47861;HTU21D;33620;52.340;5.984;2023-07-02T05:01:42;15.67;72.79
47861;HTU21D;33620;52.340;5.984;2023-07-02T05:04:10;15.67;72.56
47861;HTU21D;33620;52.340;5.984;2023-07-02T05:06:38;15.72;72.75
47861;HTU21D;33620;52.340;5.984;2023-07-02T05:09:04;15.80;72.38
47861;HTU21D;33620;52.340;5.984;2023-07-02T05:11:29;15.81;72.35
47861;HTU21D;33620;52.340;5.984;2023-07-02T05:13:55;15.83;72.31
47861;HTU21D;33620;52.340;5.984;2023-07-02T05:16:20;15.84;72.61
47861;HTU21D;33620;52.340;5.984;2023-07-02T05:18:46;15.92;72.24
47861;HTU21D;33620;52.340;5.984;2023-07-02T05:21:11;15.97;71.97
47861;HTU21D;33620;52.340;5.984;2023-07-02T05:23:37;15.99;72.13
47861;HTU21D;33620;52.340;5.984;2023-07-02T05:26:02;16.05;71.96
47861;HTU21D;33620;52.340;5.984;2023-07-02T05:28:28;16.06;71.10
47861;HTU21D;33620;52.340;5.984;2023-07-02T05:30:53;16.07;71.18
47861;HTU21D;33620;52.340;5.984;2023-07-02T05:33:18;16.05;71.12
47861;HTU21D;33620;52.340;5.984;2023-07-02T05:35:44;16.08;71.19
47861;HTU21D;33620;52.340;5.984;2023-07-02T05:38:11;16.14;71.53
47861;HTU21D;33620;52.340;5.984;2023-07-02T05:40:36;16.14;71.08
47861;HTU21D;33620;52.340;5.984;2023-07-02T05:43:02;16.17;71.19
47861;HTU21D;33620;52.340;5.984;2023-07-02T05:45:27;16.18;70.23
47861;HTU21D;33620;52.340;5.984;2023-07-02T05:47:54;16.27;70.91
47861;HTU21D;33620;52.340;5.984;2023-07-02T05:50:19;16.27;70.94
47861;HTU21D;33620;52.340;5.984;2023-07-02T05:52:45;16.35;70.63
47861;HTU21D;33620;52.340;5.984;2023-07-02T05:55:11;16.42;70.79
47861;HTU21D;33620;52.340;5.984;2023-07-02T05:57:40;16.46;70.81
47861;HTU21D;33620;52.340;5.984;2023-07-02T06:00:06;16.52;70.87
47861;HTU21D;33620;52.340;5.984;2023-07-02T06:02:31;16.57;70.77
47861;HTU21D;33620;52.340;5.984;2023-07-02T06:04:57;16.62;70.81
47861;HTU21D;33620;52.340;5.984;2023-07-02T06:07:24;16.63;70.51
47861;HTU21D;33620;52.340;5.984;2023-07-02T06:09:49;16.61;70.53
47861;HTU21D;33620;52.340;5.984;2023-07-02T06:12:15;16.65;70.66
47861;HTU21D;33620;52.340;5.984;2023-07-02T06:14:40;16.64;70.57
47861;HTU21D;33620;52.340;5.984;2023-07-02T06:17:06;16.63;70.97
47861;HTU21D;33620;52.340;5.984;2023-07-02T06:19:32;16.70;71.06
47861;HTU21D;33620;52.340;5.984;2023-07-02T06:21:58;16.76;70.65
47861;HTU21D;33620;52.340;5.984;2023-07-02T06:24:23;16.81;70.46
47861;HTU21D;33620;52.340;5.984;2023-07-02T06:26:49;16.79;69.98
47861;HTU21D;33620;52.340;5.984;2023-07-02T06:29:14;16.75;70.18
47861;HTU21D;33620;52.340;5.984;2023-07-02T06:31:39;16.78;70.38
47861;HTU21D;33620;52.340;5.984;2023-07-02T06:34:05;16.84;70.64
47861;HTU21D;33620;52.340;5.984;2023-07-02T06:36:32;16.86;70.82
47861;HTU21D;33620;52.340;5.984;2023-07-02T06:38:58;16.86;70.39
47861;HTU21D;33620;52.340;5.984;2023-07-02T06:41:23;16.81;69.48
47861;HTU21D;33620;52.340;5.984;2023-07-02T06:43:49;16.85;70.12
47861;HTU21D;33620;52.340;5.984;2023-07-02T06:46:14;16.87;69.87
47861;HTU21D;33620;52.340;5.984;2023-07-02T06:48:40;16.94;69.54
47861;HTU21D;33620;52.340;5.984;2023-07-02T06:51:05;17.03;68.91
47861;HTU21D;33620;52.340;5.984;2023-07-02T06:53:32;17.05;68.61
47861;HTU21D;33620;52.340;5.984;2023-07-02T06:55:57;17.08;67.41
47861;HTU21D;33620;52.340;5.984;2023-07-02T06:58:22;17.15;67.77
47861;HTU21D;33620;52.340;5.984;2023-07-02T07:00:48;17.16;67.17
47861;HTU21D;33620;52.340;5.984;2023-07-02T07:03:13;17.17;67.90
47861;HTU21D;33620;52.340;5.984;2023-07-02T07:05:39;17.17;68.37
47861;HTU21D;33620;52.340;5.984;2023-07-02T07:08:04;17.15;68.20
47861;HTU21D;33620;52.340;5.984;2023-07-02T07:10:29;17.11;68.58
47861;HTU21D;33620;52.340;5.984;2023-07-02T07:13:02;17.15;68.39
47861;HTU21D;33620;52.340;5.984;2023-07-02T07:15:31;17.23;68.67
47861;HTU21D;33620;52.340;5.984;2023-07-02T07:17:57;17.33;67.16
47861;HTU21D;33620;52.340;5.984;2023-07-02T07:20:23;17.40;66.73
47861;HTU21D;33620;52.340;5.984;2023-07-02T07:22:48;17.47;66.41
47861;HTU21D;33620;52.340;5.984;2023-07-02T07:25:13;17.59;64.75
47861;HTU21D;33620;52.340;5.984;2023-07-02T07:27:39;17.69;65.05
47861;HTU21D;33620;52.340;5.984;2023-07-02T07:30:05;17.76;63.04
47861;HTU21D;33620;52.340;5.984;2023-07-02T07:32:30;17.82;63.38
47861;HTU21D;33620;52.340;5.984;2023-07-02T07:34:56;17.68;60.88
47861;HTU21D;33620;52.340;5.984;2023-07-02T07:37:21;17.72;61.43
47861;HTU21D;33620;52.340;5.984;2023-07-02T07:39:46;17.69;62.07
47861;HTU21D;33620;52.340;5.984;2023-07-02T07:42:14;17.74;62.57
47861;HTU21D;33620;52.340;5.984;2023-07-02T07:44:40;17.74;60.98
47861;HTU21D;33620;52.340;5.984;2023-07-02T07:47:05;17.78;60.34
47861;HTU21D;33620;52.340;5.984;2023-07-02T07:49:31;17.84;59.93
47861;HTU21D;33620;52.340;5.984;2023-07-02T07:51:56;17.88;59.38
47861;HTU21D;33620;52.340;5.984;2023-07-02T07:54:22;17.89;59.10
47861;HTU21D;33620;52.340;5.984;2023-07-02T07:56:47;17.89;57.34
47861;HTU21D;33620;52.340;5.984;2023-07-02T07:59:13;17.81;57.38
47861;HTU21D;33620;52.340;5.984;2023-07-02T08:01:39;17.80;58.16
47861;HTU21D;33620;52.340;5.984;2023-07-02T08:04:05;17.80;58.26
47861;HTU21D;33620;52.340;5.984;2023-07-02T08:06:31;17.81;56.53
47861;HTU21D;33620;52.340;5.984;2023-07-02T08:08:57;17.90;58.22
47861;HTU21D;33620;52.340;5.984;2023-07-02T08:11:22;17.91;58.83
47861;HTU21D;33620;52.340;5.984;2023-07-02T08:13:47;17.89;58.85
47861;HTU21D;33620;52.340;5.984;2023-07-02T08:16:13;17.92;57.70
47861;HTU21D;33620;52.340;5.984;2023-07-02T08:18:38;18.00;57.32
47861;HTU21D;33620;52.340;5.984;2023-07-02T08:21:03;18.10;57.40
47861;HTU21D;33620;52.340;5.984;2023-07-02T08:23:31;18.15;57.31
47861;HTU21D;33620;52.340;5.984;2023-07-02T08:25:57;18.23;57.24
47861;HTU21D;33620;52.340;5.984;2023-07-02T08:28:22;18.23;56.81
47861;HTU21D;33620;52.340;5.984;2023-07-02T08:30:48;18.30;56.02
47861;HTU21D;33620;52.340;5.984;2023-07-02T08:33:13;18.30;56.01
47861;HTU21D;33620;52.340;5.984;2023-07-02T08:35:38;18.29;55.65
47861;HTU21D;33620;52.340;5.984;2023-07-02T08:38:04;18.17;54.13
47861;HTU21D;33620;52.340;5.984;2023-07-02T08:40:29;18.06;54.94
47861;HTU21D;33620;52.340;5.984;2023-07-02T08:42:55;18.24;55.20
47861;HTU21D;33620;52.340;5.984;2023-07-02T08:45:22;18.36;54.23
47861;HTU21D;33620;52.340;5.984;2023-07-02T08:47:49;18.42;54.25
47861;HTU21D;33620;52.340;5.984;2023-07-02T08:50:16;18.50;54.09
47861;HTU21D;33620;52.340;5.984;2023-07-02T08:52:42;18.55;52.04
47861;HTU21D;33620;52.340;5.984;2023-07-02T08:55:10;18.72;52.13
47861;HTU21D;33620;52.340;5.984;2023-07-02T08:57:36;18.96;51.98
47861;HTU21D;33620;52.340;5.984;2023-07-02T09:00:08;19.20;51.01
47861;HTU21D;33620;52.340;5.984;2023-07-02T09:02:34;19.18;48.82
47861;HTU21D;33620;52.340;5.984;2023-07-02T09:05:01;18.92;49.08
47861;HTU21D;33620;52.340;5.984;2023-07-02T09:07:26;19.05;49.17
47861;HTU21D;33620;52.340;5.984;2023-07-02T09:09:52;19.35;50.11
47861;HTU21D;33620;52.340;5.984;2023-07-02T09:12:28;19.45;50.11
47861;HTU21D;33620;52.340;5.984;2023-07-02T09:15:02;19.33;48.63
47861;HTU21D;33620;52.340;5.984;2023-07-02T09:17:31;19.23;47.79
47861;HTU21D;33620;52.340;5.984;2023-07-02T09:19:58;19.46;48.18
47861;HTU21D;33620;52.340;5.984;2023-07-02T09:22:25;19.67;49.28
47861;HTU21D;33620;52.340;5.984;2023-07-02T09:24:52;19.67;48.76
47861;HTU21D;33620;52.340;5.984;2023-07-02T09:27:19;19.80;50.26
47861;HTU21D;33620;52.340;5.984;2023-07-02T09:29:52;19.91;48.64
47861;HTU21D;33620;52.340;5.984;2023-07-02T09:32:25;19.94;48.76
47861;HTU21D;33620;52.340;5.984;2023-07-02T09:34:53;19.76;48.59
47861;HTU21D;33620;52.340;5.984;2023-07-02T09:37:18;19.75;50.07
47861;HTU21D;33620;52.340;5.984;2023-07-02T09:39:44;19.65;50.17
47861;HTU21D;33620;52.340;5.984;2023-07-02T09:42:13;19.46;49.40
47861;HTU21D;33620;52.340;5.984;2023-07-02T09:44:39;19.31;48.47
47861;HTU21D;33620;52.340;5.984;2023-07-02T09:47:10;19.10;49.34
47861;HTU21D;33620;52.340;5.984;2023-07-02T09:49:39;19.08;49.64
47861;HTU21D;33620;52.340;5.984;2023-07-02T09:52:07;19.17;50.38
47861;HTU21D;33620;52.340;5.984;2023-07-02T09:54:33;18.96;51.53
47861;HTU21D;33620;52.340;5.984;2023-07-02T09:56:59;19.10;51.40
47861;HTU21D;33620;52.340;5.984;2023-07-02T09:59:25;19.21;51.73
47861;HTU21D;33620;52.340;5.984;2023-07-02T10:01:51;19.07;50.47
47861;HTU21D;33620;52.340;5.984;2023-07-02T10:04:18;19.00;52.15
47861;HTU21D;33620;52.340;5.984;2023-07-02T10:06:50;19.18;52.79
47861;HTU21D;33620;52.340;5.984;2023-07-02T10:09:17;19.41;52.83
47861;HTU21D;33620;52.340;5.984;2023-07-02T10:11:43;19.65;52.34
47861;HTU21D;33620;52.340;5.984;2023-07-02T10:14:09;19.72;49.97
47861;HTU21D;33620;52.340;5.984;2023-07-02T10:16:47;19.74;50.69
47861;HTU21D;33620;52.340;5.984;2023-07-02T10:19:13;19.68;49.73
47861;HTU21D;33620;52.340;5.984;2023-07-02T10:21:38;19.89;50.02
47861;HTU21D;33620;52.340;5.984;2023-07-02T10:24:14;20.09;47.91
47861;HTU21D;33620;52.340;5.984;2023-07-02T10:26:55;20.31;46.19
47861;HTU21D;33620;52.340;5.984;2023-07-02T10:29:23;20.22;44.73
47861;HTU21D;33620;52.340;5.984;2023-07-02T10:31:54;20.30;47.04
47861;HTU21D;33620;52.340;5.984;2023-07-02T10:34:33;20.31;43.03
47861;HTU21D;33620;52.340;5.984;2023-07-02T10:37:03;20.21;43.48
47861;HTU21D;33620;52.340;5.984;2023-07-02T10:39:30;19.94;43.07
47861;HTU21D;33620;52.340;5.984;2023-07-02T10:42:09;19.80;44.14
47861;HTU21D;33620;52.340;5.984;2023-07-02T10:44:51;19.67;45.99
47861;HTU21D;33620;52.340;5.984;2023-07-02T10:47:18;19.76;44.85
47861;HTU21D;33620;52.340;5.984;2023-07-02T10:49:44;19.76;42.70
47861;HTU21D;33620;52.340;5.984;2023-07-02T10:52:09;19.66;43.02
47861;HTU21D;33620;52.340;5.984;2023-07-02T10:54:41;19.52;45.16
47861;HTU21D;33620;52.340;5.984;2023-07-02T10:57:08;19.51;46.75
47861;HTU21D;33620;52.340;5.984;2023-07-02T10:59:34;19.91;46.35
47861;HTU21D;33620;52.340;5.984;2023-07-02T11:01:59;20.17;43.88
47861;HTU21D;33620;52.340;5.984;2023-07-02T11:04:28;20.03;41.40
47861;HTU21D;33620;52.340;5.984;2023-07-02T11:06:54;20.36;41.73
47861;HTU21D;33620;52.340;5.984;2023-07-02T11:09:19;20.46;43.19
47861;HTU21D;33620;52.340;5.984;2023-07-02T11:11:53;20.39;42.81
47861;HTU21D;33620;52.340;5.984;2023-07-02T11:14:31;20.13;41.63
47861;HTU21D;33620;52.340;5.984;2023-07-02T11:16:58;20.17;41.96
47861;HTU21D;33620;52.340;5.984;2023-07-02T11:19:24;20.07;38.94
47861;HTU21D;33620;52.340;5.984;2023-07-02T11:21:51;20.03;40.53
47861;HTU21D;33620;52.340;5.984;2023-07-02T11:24:26;19.92;41.22
47861;HTU21D;33620;52.340;5.984;2023-07-02T11:26:52;20.07;42.86
47861;HTU21D;33620;52.340;5.984;2023-07-02T11:29:20;20.15;43.74
47861;HTU21D;33620;52.340;5.984;2023-07-02T11:31:46;20.12;40.94
47861;HTU21D;33620;52.340;5.984;2023-07-02T11:34:15;19.88;41.13
47861;HTU21D;33620;52.340;5.984;2023-07-02T11:36:41;19.85;42.36
47861;HTU21D;33620;52.340;5.984;2023-07-02T11:39:06;19.81;42.67
47861;HTU21D;33620;52.340;5.984;2023-07-02T11:41:39;20.03;42.57
47861;HTU21D;33620;52.340;5.984;2023-07-02T11:44:05;20.12;42.74
47861;HTU21D;33620;52.340;5.984;2023-07-02T11:46:30;20.06;42.09
47861;HTU21D;33620;52.340;5.984;2023-07-02T11:48:56;19.76;42.65
47861;HTU21D;33620;52.340;5.984;2023-07-02T11:51:21;19.86;42.65
47861;HTU21D;33620;52.340;5.984;2023-07-02T11:53:47;20.03;42.87
47861;HTU21D;33620;52.340;5.984;2023-07-02T11:56:12;20.10;43.33
47861;HTU21D;33620;52.340;5.984;2023-07-02T11:58:41;20.07;42.29
47861;HTU21D;33620;52.340;5.984;2023-07-02T12:01:07;19.97;42.42
47861;HTU21D;33620;52.340;5.984;2023-07-02T12:03:33;19.89;42.61
47861;HTU21D;33620;52.340;5.984;2023-07-02T12:05:58;19.91;43.22
47861;HTU21D;33620;52.340;5.984;2023-07-02T12:08:24;20.21;43.21
47861;HTU21D;33620;52.340;5.984;2023-07-02T12:10:49;20.46;41.81
47861;HTU21D;33620;52.340;5.984;2023-07-02T12:13:15;20.61;40.86
47861;HTU21D;33620;52.340;5.984;2023-07-02T12:15:40;20.58;40.87
47861;HTU21D;33620;52.340;5.984;2023-07-02T12:18:06;20.56;40.20
47861;HTU21D;33620;52.340;5.984;2023-07-02T12:20:32;20.55;40.88
47861;HTU21D;33620;52.340;5.984;2023-07-02T12:22:57;20.60;42.23
47861;HTU21D;33620;52.340;5.984;2023-07-02T12:25:23;20.45;41.04
47861;HTU21D;33620;52.340;5.984;2023-07-02T12:27:48;20.42;40.84
47861;HTU21D;33620;52.340;5.984;2023-07-02T12:30:14;20.49;40.78
47861;HTU21D;33620;52.340;5.984;2023-07-02T12:32:43;20.56;41.00
47861;HTU21D;33620;52.340;5.984;2023-07-02T12:35:09;20.71;39.86
47861;HTU21D;33620;52.340;5.984;2023-07-02T12:37:35;20.74;40.15
47861;HTU21D;33620;52.340;5.984;2023-07-02T12:40:00;20.85;40.13
47861;HTU21D;33620;52.340;5.984;2023-07-02T12:42:26;20.86;39.03
47861;HTU21D;33620;52.340;5.984;2023-07-02T12:44:51;20.83;38.86
47861;HTU21D;33620;52.340;5.984;2023-07-02T12:47:17;20.50;38.75
47861;HTU21D;33620;52.340;5.984;2023-07-02T12:49:43;20.42;40.03
47861;HTU21D;33620;52.340;5.984;2023-07-02T12:52:09;20.35;39.84
47861;HTU21D;33620;52.340;5.984;2023-07-02T12:54:34;20.24;40.13
47861;HTU21D;33620;52.340;5.984;2023-07-02T12:56:59;20.20;41.48
47861;HTU21D;33620;52.340;5.984;2023-07-02T12:59:25;20.29;40.97
47861;HTU21D;33620;52.340;5.984;2023-07-02T13:01:50;20.25;41.48
47861;HTU21D;33620;52.340;5.984;2023-07-02T13:04:15;20.31;40.33
47861;HTU21D;33620;52.340;5.984;2023-07-02T13:06:41;20.35;40.36
47861;HTU21D;33620;52.340;5.984;2023-07-02T13:09:07;20.40;40.68
47861;HTU21D;33620;52.340;5.984;2023-07-02T13:11:33;20.50;40.23
47861;HTU21D;33620;52.340;5.984;2023-07-02T13:13:58;20.56;40.65
47861;HTU21D;33620;52.340;5.984;2023-07-02T13:16:23;20.61;40.29
47861;HTU21D;33620;52.340;5.984;2023-07-02T13:18:49;20.53;39.37
47861;HTU21D;33620;52.340;5.984;2023-07-02T13:21:14;20.61;38.31
47861;HTU21D;33620;52.340;5.984;2023-07-02T13:23:40;20.58;39.65
47861;HTU21D;33620;52.340;5.984;2023-07-02T13:26:05;20.69;40.65
47861;HTU21D;33620;52.340;5.984;2023-07-02T13:28:31;20.90;39.12
47861;HTU21D;33620;52.340;5.984;2023-07-02T13:30:56;20.99;39.54
47861;HTU21D;33620;52.340;5.984;2023-07-02T13:33:22;20.77;39.66
47861;HTU21D;33620;52.340;5.984;2023-07-02T13:35:47;20.74;40.32
47861;HTU21D;33620;52.340;5.984;2023-07-02T13:38:13;20.92;39.62
47861;HTU21D;33620;52.340;5.984;2023-07-02T13:40:38;21.05;39.41
47861;HTU21D;33620;52.340;5.984;2023-07-02T13:43:04;21.23;37.82
47861;HTU21D;33620;52.340;5.984;2023-07-02T13:45:29;21.27;35.82
47861;HTU21D;33620;52.340;5.984;2023-07-02T13:47:55;21.43;37.24
47861;HTU21D;33620;52.340;5.984;2023-07-02T13:50:20;21.58;38.13
47861;HTU21D;33620;52.340;5.984;2023-07-02T13:52:46;21.62;37.12
47861;HTU21D;33620;52.340;5.984;2023-07-02T13:55:12;21.62;37.63
47861;HTU21D;33620;52.340;5.984;2023-07-02T13:57:37;21.79;37.05
47861;HTU21D;33620;52.340;5.984;2023-07-02T14:00:04;21.75;36.43
47861;HTU21D;33620;52.340;5.984;2023-07-02T14:02:30;21.67;34.78
47861;HTU21D;33620;52.340;5.984;2023-07-02T14:04:57;21.64;34.95
47861;HTU21D;33620;52.340;5.984;2023-07-02T14:07:23;21.53;35.36
47861;HTU21D;33620;52.340;5.984;2023-07-02T14:09:49;21.59;36.32
47861;HTU21D;33620;52.340;5.984;2023-07-02T14:12:14;21.66;36.91
47861;HTU21D;33620;52.340;5.984;2023-07-02T14:14:40;21.82;36.44
47861;HTU21D;33620;52.340;5.984;2023-07-02T14:17:06;21.96;34.75
47861;HTU21D;33620;52.340;5.984;2023-07-02T14:19:32;21.91;35.05
47861;HTU21D;33620;52.340;5.984;2023-07-02T14:21:57;21.88;35.41
47861;HTU21D;33620;52.340;5.984;2023-07-02T14:24:23;21.89;35.79
47861;HTU21D;33620;52.340;5.984;2023-07-02T14:26:48;21.80;35.72
47861;HTU21D;33620;52.340;5.984;2023-07-02T14:29:14;21.79;36.43
47861;HTU21D;33620;52.340;5.984;2023-07-02T14:31:39;21.98;36.47
47861;HTU21D;33620;52.340;5.984;2023-07-02T14:34:05;22.18;35.84
47861;HTU21D;33620;52.340;5.984;2023-07-02T14:36:30;22.31;34.97
47861;HTU21D;33620;52.340;5.984;2023-07-02T14:38:56;22.09;35.58
47861;HTU21D;33620;52.340;5.984;2023-07-02T14:41:21;22.09;34.90
47861;HTU21D;33620;52.340;5.984;2023-07-02T14:43:47;22.08;36.08
47861;HTU21D;33620;52.340;5.984;2023-07-02T14:46:12;22.04;35.07
47861;HTU21D;33620;52.340;5.984;2023-07-02T14:48:38;22.03;36.45
47861;HTU21D;33620;52.340;5.984;2023-07-02T14:51:03;21.94;34.73
47861;HTU21D;33620;52.340;5.984;2023-07-02T14:53:30;21.83;35.97
47861;HTU21D;33620;52.340;5.984;2023-07-02T14:55:58;21.75;36.40
47861;HTU21D;33620;52.340;5.984;2023-07-02T14:58:25;21.74;36.81
47861;HTU21D;33620;52.340;5.984;2023-07-02T15:00:53;21.87;36.56
47861;HTU21D;33620;52.340;5.984;2023-07-02T15:03:20;21.81;35.60
47861;HTU21D;33620;52.340;5.984;2023-07-02T15:05:48;21.65;35.88
47861;HTU21D;33620;52.340;5.984;2023-07-02T15:08:14;21.72;36.14
47861;HTU21D;33620;52.340;5.984;2023-07-02T15:10:49;21.93;37.00